Time;durP1;ratioP1;P1;durP2;ratioP2;P2;SDS_P1;SDS_P2;PMS_P1;PMS_P2;Temp;Humidity;BMP_temperature;BMP_pressure;BME280_temperature;BME280_humidity;BME280_pressure;Samples;Min_cycle;Max_cycle;Signal;HPM_P1;HPM_P2
2022/10/30 00:00:40;;;;;;;27.13;13.95;;;13.00;99.90;;;;;;4839744;29;20041;-86
2022/10/30 00:03:10;;;;;;;29.48;15.32;;;12.70;99.90;;;;;;4840031;29;20056;-86
2022/10/30 00:05:38;;;;;;;30.88;13.80;;;12.60;99.90;;;;;;4840888;29;20452;-86
2022/10/30 00:08:04;;;;;;;36.13;15.48;;;12.70;99.90;;;;;;4855349;29;20165;-86
2022/10/30 00:10:30;;;;;;;36.72;15.70;;;12.60;99.90;;;;;;4841212;29;20141;-87
2022/10/30 00:12:56;;;;;;;29.83;15.13;;;12.70;99.90;;;;;;4840265;29;20052;-86
2022/10/30 00:15:22;;;;;;;39.28;16.02;;;12.60;99.90;;;;;;4869678;29;20100;-86
2022/10/30 00:17:48;;;;;;;40.30;14.82;;;12.80;99.90;;;;;;4876650;29;20044;-87
2022/10/30 00:20:13;;;;;;;25.73;14.80;;;12.60;99.90;;;;;;4877950;29;20063;-86
2022/10/30 00:22:39;;;;;;;34.75;14.05;;;12.60;99.90;;;;;;4880892;29;20052;-86
2022/10/30 00:25:05;;;;;;;30.35;14.65;;;12.60;99.90;;;;;;4856082;29;20065;-86
2022/10/30 00:27:31;;;;;;;29.83;14.15;;;12.70;99.90;;;;;;4856177;29;20049;-86
2022/10/30 00:29:56;;;;;;;30.92;14.52;;;12.50;99.90;;;;;;4839300;29;20463;-86
2022/10/30 00:32:22;;;;;;;27.67;12.88;;;12.60;99.90;;;;;;4839909;29;20041;-86
2022/10/30 00:34:47;;;;;;;31.20;14.55;;;12.70;99.90;;;;;;4839784;29;20050;-86
2022/10/30 00:37:13;;;;;;;30.55;14.38;;;12.60;99.90;;;;;;4840136;29;20059;-87
2022/10/30 00:39:39;;;;;;;34.33;14.23;;;12.70;99.90;;;;;;4840325;29;20398;-87
2022/10/30 00:42:04;;;;;;;29.35;14.10;;;12.60;99.90;;;;;;4840358;29;20053;-87
2022/10/30 00:44:37;;;;;;;26.38;13.73;;;12.80;99.90;;;;;;4840029;29;20406;-86
2022/10/30 00:47:11;;;;;;;33.13;13.35;;;12.80;99.90;;;;;;4839814;29;20049;-87
2022/10/30 00:49:44;;;;;;;30.60;14.23;;;12.80;99.90;;;;;;4839369;29;20049;-86
2022/10/30 00:52:10;;;;;;;36.33;14.73;;;13.00;99.90;;;;;;4840505;29;20041;-86
2022/10/30 00:54:36;;;;;;;32.05;13.68;;;13.00;99.90;;;;;;4840356;29;20049;-87
2022/10/30 00:57:06;;;;;;;28.55;13.63;;;12.60;99.90;;;;;;4869783;29;20049;-87
2022/10/30 00:59:34;;;;;;;27.50;13.18;;;13.00;99.90;;;;;;4855612;29;20053;-87
2022/10/30 01:02:02;;;;;;;31.48;13.13;;;12.70;99.90;;;;;;4855060;29;20045;-87
2022/10/30 01:04:30;;;;;;;28.45;13.55;;;12.80;99.90;;;;;;4854336;29;20057;-87
2022/10/30 01:06:59;;;;;;;35.28;14.43;;;12.70;99.90;;;;;;4857073;29;20049;-87
2022/10/30 01:09:24;;;;;;;28.40;12.18;;;12.60;99.90;;;;;;4859010;29;20037;-86
2022/10/30 01:11:50;;;;;;;25.63;13.18;;;12.70;99.90;;;;;;4858310;29;20201;-86
2022/10/30 01:14:18;;;;;;;33.10;14.18;;;12.70;99.90;;;;;;4859995;29;20156;-87
2022/10/30 01:17:05;;;;;;;39.70;14.07;;;12.60;99.90;;;;;;4859322;29;20042;-87
2022/10/30 01:19:35;;;;;;;33.85;14.10;;;12.60;99.90;;;;;;4858297;29;20072;-87
2022/10/30 01:22:22;;;;;;;32.33;12.73;;;12.70;99.90;;;;;;4858554;29;20069;-87
2022/10/30 01:25:16;;;;;;;34.45;12.45;;;12.70;99.90;;;;;;4858230;29;20143;-86
2022/10/30 01:28:08;;;;;;;35.00;13.60;;;12.60;99.90;;;;;;4858272;29;20506;-86
2022/10/30 01:30:40;;;;;;;28.38;13.75;;;12.70;99.90;;;;;;4859154;29;20052;-86
2022/10/30 01:33:32;;;;;;;32.65;12.65;;;12.70;99.90;;;;;;4857481;29;20045;-86
2022/10/30 01:36:12;;;;;;;29.63;12.93;;;12.60;99.90;;;;;;4859138;29;20132;-86
2022/10/30 01:38:44;;;;;;;31.33;12.57;;;12.50;99.90;;;;;;4858240;29;20379;-86
2022/10/30 01:41:10;;;;;;;29.20;12.80;;;12.80;99.90;;;;;;4858626;29;20106;-86
2022/10/30 01:43:37;;;;;;;29.27;13.25;;;12.80;99.90;;;;;;4858953;29;20502;-87
2022/10/30 01:46:10;;;;;;;31.88;13.02;;;12.90;99.90;;;;;;4842136;29;20073;-86
2022/10/30 01:48:44;;;;;;;26.55;12.70;;;12.90;99.90;;;;;;4842473;29;20089;-86
2022/10/30 01:51:26;;;;;;;29.30;13.60;;;12.80;99.90;;;;;;4843448;29;20057;-86
2022/10/30 01:54:11;;;;;;;33.47;13.23;;;12.60;99.90;;;;;;4842005;29;20058;-87
2022/10/30 01:57:02;;;;;;;31.23;12.98;;;12.70;99.90;;;;;;4843391;29;20207;-87
2022/10/30 01:59:50;;;;;;;29.20;13.05;;;12.70;99.90;;;;;;4842349;29;20061;-87
2022/10/30 02:02:16;;;;;;;25.17;12.82;;;12.60;99.90;;;;;;4842251;29;20525;-87
2022/10/30 02:04:42;;;;;;;26.38;12.50;;;12.60;99.90;;;;;;4842537;29;20041;-87
2022/10/30 02:07:15;;;;;;;34.33;13.02;;;12.80;99.90;;;;;;4842544;29;20456;-85
2022/10/30 02:09:41;;;;;;;32.10;12.88;;;12.60;99.90;;;;;;4858402;29;20614;-86
2022/10/30 02:12:08;;;;;;;31.50;12.05;;;12.80;99.90;;;;;;4843055;29;20084;-87
2022/10/30 02:14:38;;;;;;;26.45;12.75;;;12.60;99.90;;;;;;4842570;29;20053;-87
2022/10/30 02:17:05;;;;;;;34.97;13.02;;;12.80;99.90;;;;;;4843019;29;20132;-86
2022/10/30 02:19:31;;;;;;;33.75;12.90;;;12.90;99.90;;;;;;4842089;29;20050;-87
2022/10/30 02:21:57;;;;;;;41.80;12.82;;;12.90;99.90;;;;;;4841687;29;20140;-86
2022/10/30 02:24:23;;;;;;;34.33;12.45;;;12.80;99.90;;;;;;4842383;29;20080;-87
2022/10/30 02:26:48;;;;;;;31.25;12.80;;;12.90;99.90;;;;;;4842488;29;20133;-86
2022/10/30 02:29:14;;;;;;;26.55;12.23;;;12.90;99.90;;;;;;4857269;29;20201;-87
2022/10/30 02:31:40;;;;;;;28.92;14.27;;;12.90;99.90;;;;;;4842774;29;20409;-86
2022/10/30 02:34:05;;;;;;;31.58;12.27;;;13.00;99.90;;;;;;4853026;29;20689;-86
2022/10/30 02:36:31;;;;;;;29.88;13.10;;;12.90;99.90;;;;;;4842293;29;20042;-86
2022/10/30 02:38:57;;;;;;;33.38;13.13;;;13.00;99.90;;;;;;4857415;29;20367;-86
2022/10/30 02:41:23;;;;;;;30.77;13.02;;;13.00;99.90;;;;;;4857029;29;20113;-87
2022/10/30 02:43:52;;;;;;;27.88;12.23;;;13.00;99.90;;;;;;4841881;29;20046;-86
2022/10/30 02:46:18;;;;;;;30.75;12.68;;;12.90;99.90;;;;;;4842527;29;20045;-86
2022/10/30 02:48:43;;;;;;;30.48;12.90;;;12.80;99.90;;;;;;4855415;29;20473;-86
2022/10/30 02:51:09;;;;;;;27.75;12.07;;;13.10;99.90;;;;;;4857943;29;20064;-86
2022/10/30 02:53:35;;;;;;;27.08;13.02;;;12.70;99.90;;;;;;4876294;29;20497;-86
2022/10/30 02:56:05;;;;;;;30.58;12.90;;;12.80;99.90;;;;;;4878760;29;20450;-87
2022/10/30 02:58:31;;;;;;;30.63;12.45;;;12.80;99.90;;;;;;4879056;29;20044;-87
2022/10/30 03:00:57;;;;;;;30.48;12.50;;;12.80;99.90;;;;;;4879124;29;20088;-87
2022/10/30 03:03:23;;;;;;;35.15;13.15;;;12.80;99.90;;;;;;4878148;29;20049;-87
2022/10/30 03:05:48;;;;;;;29.85;13.80;;;12.90;99.90;;;;;;4879102;29;20052;-86
2022/10/30 03:08:14;;;;;;;32.08;13.20;;;12.90;99.90;;;;;;4878805;29;20044;-87
2022/10/30 03:10:39;;;;;;;29.77;13.13;;;12.90;99.90;;;;;;4878298;29;20044;-86
2022/10/30 03:13:05;;;;;;;31.95;12.52;;;12.90;99.90;;;;;;4851621;29;20145;-86
2022/10/30 03:15:31;;;;;;;40.95;13.85;;;13.10;99.90;;;;;;4842363;29;20053;-87
2022/10/30 03:17:56;;;;;;;24.25;13.45;;;13.10;99.90;;;;;;4840688;29;20144;-87
2022/10/30 03:20:22;;;;;;;32.20;14.25;;;12.90;99.90;;;;;;4842067;29;20085;-86
2022/10/30 03:22:48;;;;;;;30.73;13.50;;;12.90;99.90;;;;;;4841816;29;20090;-86
2022/10/30 03:25:13;;;;;;;31.70;12.32;;;12.90;99.90;;;;;;4856619;29;20041;-86
2022/10/30 03:27:39;;;;;;;33.42;12.40;;;12.90;99.90;;;;;;4841585;29;20109;-87
2022/10/30 03:30:05;;;;;;;34.05;12.32;;;13.30;99.90;;;;;;4841134;29;20056;-86
2022/10/30 03:32:31;;;;;;;27.58;12.25;;;12.90;99.90;;;;;;4840711;29;20136;-87
2022/10/30 03:34:57;;;;;;;29.40;12.05;;;12.90;99.90;;;;;;4841378;29;20128;-86
2022/10/30 03:37:24;;;;;;;31.98;12.77;;;12.80;99.90;;;;;;4841397;29;20079;-87
2022/10/30 03:39:50;;;;;;;27.92;12.85;;;12.80;99.90;;;;;;4840752;29;20049;-87
2022/10/30 03:42:16;;;;;;;22.33;12.50;;;12.80;99.90;;;;;;4841021;29;20053;-87
2022/10/30 03:44:41;;;;;;;26.95;12.65;;;13.10;99.90;;;;;;4840615;29;20057;-87
2022/10/30 03:47:07;;;;;;;26.92;12.50;;;13.20;99.90;;;;;;4841252;29;20056;-87
2022/10/30 03:49:35;;;;;;;27.80;12.65;;;12.90;99.90;;;;;;4840764;29;20121;-87
2022/10/30 03:52:01;;;;;;;35.10;12.77;;;13.10;99.90;;;;;;4840374;29;20092;-87
2022/10/30 03:54:29;;;;;;;26.00;12.93;;;13.20;99.90;;;;;;4841644;29;20057;-87
2022/10/30 03:56:55;;;;;;;29.63;12.90;;;13.00;99.90;;;;;;4840840;29;20045;-87
2022/10/30 03:59:21;;;;;;;31.70;12.20;;;13.00;99.90;;;;;;4840343;29;20049;-86
2022/10/30 04:01:46;;;;;;;27.48;12.60;;;13.00;99.90;;;;;;4856461;29;20054;-86
2022/10/30 04:04:12;;;;;;;27.65;12.45;;;13.10;99.90;;;;;;4840862;29;20498;-87
2022/10/30 04:06:38;;;;;;;27.60;13.20;;;13.10;99.90;;;;;;4840238;29;20125;-87
2022/10/30 04:09:03;;;;;;;23.48;12.57;;;13.10;99.90;;;;;;4856323;29;20061;-86
2022/10/30 04:11:29;;;;;;;22.25;12.48;;;13.10;99.90;;;;;;4841008;29;20170;-86
2022/10/30 04:13:54;;;;;;;23.60;11.98;;;12.90;99.90;;;;;;4840194;29;20541;-86
2022/10/30 04:16:23;;;;;;;32.35;13.00;;;12.90;99.90;;;;;;4841522;29;20231;-87
2022/10/30 04:18:49;;;;;;;23.75;11.65;;;13.00;99.90;;;;;;4839990;29;20125;-87
2022/10/30 04:21:14;;;;;;;31.08;12.55;;;13.00;99.90;;;;;;4840413;29;20477;-86
2022/10/30 04:23:40;;;;;;;33.13;13.07;;;13.00;99.90;;;;;;4840114;29;20065;-86
2022/10/30 04:26:06;;;;;;;37.08;13.43;;;13.10;99.90;;;;;;4840960;29;20045;-86
2022/10/30 04:28:31;;;;;;;30.35;12.93;;;13.10;99.90;;;;;;4839622;29;20422;-87
2022/10/30 04:31:00;;;;;;;28.52;13.80;;;12.90;99.90;;;;;;4840297;29;20042;-87
2022/10/30 04:33:26;;;;;;;33.35;14.43;;;12.80;99.90;;;;;;4839832;29;20045;-87
2022/10/30 04:35:57;;;;;;;31.55;12.55;;;12.80;99.90;;;;;;4840649;29;20056;-87
2022/10/30 04:38:23;;;;;;;30.33;13.85;;;12.90;99.90;;;;;;4854834;29;20045;-86
2022/10/30 04:40:49;;;;;;;26.30;12.73;;;12.90;99.90;;;;;;4869472;29;20294;-87
2022/10/30 04:43:14;;;;;;;40.65;13.68;;;12.80;99.90;;;;;;4870988;29;20045;-87
2022/10/30 04:45:40;;;;;;;30.02;13.88;;;12.70;99.90;;;;;;4870945;29;20072;-86
2022/10/30 04:48:14;;;;;;;31.83;14.18;;;12.70;99.90;;;;;;4854399;29;20049;-87
2022/10/30 04:50:40;;;;;;;27.90;13.73;;;12.80;99.90;;;;;;4840012;29;20060;-87
2022/10/30 04:53:10;;;;;;;31.27;13.77;;;12.80;99.90;;;;;;4855776;29;20041;-87
2022/10/30 04:55:36;;;;;;;34.45;13.55;;;12.80;99.90;;;;;;4839666;29;20042;-86
2022/10/30 04:58:02;;;;;;;31.42;14.50;;;12.70;99.90;;;;;;4870756;29;20569;-87
2022/10/30 05:00:28;;;;;;;25.15;13.20;;;12.70;99.90;;;;;;4855940;29;20057;-87
2022/10/30 05:02:53;;;;;;;35.75;13.80;;;12.60;99.90;;;;;;4838542;29;20118;-86
2022/10/30 05:05:20;;;;;;;41.25;14.20;;;12.60;99.90;;;;;;4840429;29;20055;-86
2022/10/30 05:07:45;;;;;;;35.95;14.40;;;12.80;99.90;;;;;;4854678;29;20053;-86
2022/10/30 05:10:14;;;;;;;25.50;13.15;;;12.50;99.90;;;;;;4870609;29;20133;-86
2022/10/30 05:12:42;;;;;;;31.63;15.13;;;12.60;99.90;;;;;;4839865;29;20049;-87
2022/10/30 05:15:08;;;;;;;39.67;13.73;;;12.50;99.90;;;;;;4840598;29;20056;-87
2022/10/30 05:17:34;;;;;;;30.20;13.50;;;12.60;99.90;;;;;;4853843;29;20053;-86
2022/10/30 05:19:59;;;;;;;24.60;13.90;;;12.50;99.90;;;;;;4872826;29;20042;-87
2022/10/30 05:22:25;;;;;;;29.58;14.02;;;12.40;99.90;;;;;;4858363;29;20045;-86
2022/10/30 05:24:51;;;;;;;30.92;14.25;;;12.40;99.90;;;;;;4873266;29;20140;-86
2022/10/30 05:27:19;;;;;;;33.25;13.95;;;12.50;99.90;;;;;;4873644;29;20485;-86
2022/10/30 05:29:47;;;;;;;34.40;13.77;;;12.40;99.90;;;;;;4843098;29;20041;-87
2022/10/30 05:32:18;;;;;;;30.55;14.32;;;12.50;99.90;;;;;;4842753;29;20059;-86
2022/10/30 05:34:52;;;;;;;30.60;14.00;;;12.30;99.90;;;;;;4843256;29;20509;-87
2022/10/30 05:37:21;;;;;;;35.20;15.00;;;12.90;99.90;;;;;;4842467;29;20057;-87
2022/10/30 05:39:52;;;;;;;33.25;13.57;;;12.40;99.90;;;;;;4842904;29;20060;-87
2022/10/30 05:42:21;;;;;;;35.30;15.73;;;13.10;99.90;;;;;;4843012;29;20053;-87
2022/10/30 05:44:47;;;;;;;26.00;13.55;;;12.60;99.90;;;;;;4842040;29;20045;-86
2022/10/30 05:47:13;;;;;;;40.80;15.60;;;12.50;99.90;;;;;;4842974;29;20049;-86
2022/10/30 05:49:39;;;;;;;36.75;14.52;;;12.40;99.90;;;;;;4841910;29;20494;-86
2022/10/30 05:52:04;;;;;;;39.70;16.55;;;12.40;99.90;;;;;;4843375;29;20045;-87
2022/10/30 05:54:31;;;;;;;35.40;16.17;;;12.30;99.90;;;;;;4846508;29;20052;-88
2022/10/30 05:56:57;;;;;;;32.78;16.05;;;12.40;99.90;;;;;;4845951;29;20047;-86
2022/10/30 05:59:23;;;;;;;35.35;15.30;;;12.70;99.90;;;;;;4846082;29;20068;-87
2022/10/30 06:01:51;;;;;;;40.83;16.67;;;12.30;99.90;;;;;;4854552;29;20106;-88
2022/10/30 06:04:26;;;;;;;34.15;16.67;;;12.30;99.90;;;;;;4847086;29;20055;-88
2022/10/30 06:06:54;;;;;;;36.90;17.40;;;12.20;99.90;;;;;;4864412;29;20052;-87
2022/10/30 06:09:20;;;;;;;32.83;16.33;;;12.10;99.90;;;;;;4865186;29;20068;-87
2022/10/30 06:11:46;;;;;;;34.13;16.25;;;12.10;99.90;;;;;;4864676;29;20075;-88
2022/10/30 06:14:11;;;;;;;36.88;16.55;;;12.30;99.90;;;;;;4864555;29;20058;-87
2022/10/30 06:16:37;;;;;;;35.17;16.10;;;12.70;99.90;;;;;;4864997;29;20545;-88
2022/10/30 06:19:06;;;;;;;34.13;16.08;;;12.20;99.90;;;;;;4864298;29;20398;-88
2022/10/30 06:21:41;;;;;;;42.55;16.27;;;12.10;99.90;;;;;;4864500;29;20095;-88
2022/10/30 06:24:10;;;;;;;33.85;15.80;;;12.10;99.90;;;;;;4864792;29;20052;-87
2022/10/30 06:26:42;;;;;;;42.13;17.88;;;12.10;99.90;;;;;;4864281;29;20648;-88
2022/10/30 06:29:09;;;;;;;33.58;16.48;;;12.00;99.90;;;;;;4880765;29;20060;-88
2022/10/30 06:31:35;;;;;;;32.88;15.45;;;12.00;99.90;;;;;;4865393;29;20044;-87
2022/10/30 06:34:01;;;;;;;28.02;15.73;;;12.20;99.90;;;;;;4863542;29;20119;-88
2022/10/30 06:36:27;;;;;;;38.15;15.52;;;12.10;99.90;;;;;;4864444;29;20044;-88
2022/10/30 06:39:00;;;;;;;34.70;16.13;;;12.30;99.90;;;;;;4879831;29;20489;-88
2022/10/30 06:41:33;;;;;;;37.03;15.32;;;12.20;99.90;;;;;;4864205;29;20069;-87
2022/10/30 06:44:01;;;;;;;37.05;15.32;;;12.20;99.90;;;;;;4864470;29;20056;-88
2022/10/30 06:46:27;;;;;;;32.25;14.95;;;12.10;99.90;;;;;;4864901;29;20131;-88
2022/10/30 06:48:53;;;;;;;40.97;16.33;;;12.20;99.90;;;;;;4863113;29;20178;-87
2022/10/30 06:51:19;;;;;;;37.42;17.02;;;12.10;99.90;;;;;;4864456;29;20140;-89
2022/10/30 06:53:50;;;;;;;32.88;14.48;;;12.10;99.90;;;;;;4858528;29;20081;-88
2022/10/30 06:56:19;;;;;;;30.10;15.65;;;12.10;99.90;;;;;;4845587;29;20049;-88
2022/10/30 06:58:45;;;;;;;31.08;15.05;;;12.80;99.90;;;;;;4845926;29;20144;-88
2022/10/30 07:01:11;;;;;;;33.47;15.02;;;12.30;99.90;;;;;;4847438;29;20201;-88
2022/10/30 07:03:36;;;;;;;38.70;16.40;;;12.30;99.90;;;;;;4852987;29;20056;-89
2022/10/30 07:06:02;;;;;;;35.03;15.80;;;12.20;99.90;;;;;;4847819;29;20131;-87
2022/10/30 07:08:28;;;;;;;32.05;15.18;;;12.40;99.90;;;;;;4875479;29;20506;-88
2022/10/30 07:10:57;;;;;;;35.95;15.50;;;12.30;99.90;;;;;;4879422;29;20040;-88
2022/10/30 07:13:23;;;;;;;36.67;15.40;;;12.30;99.90;;;;;;4857502;29;20049;-88
2022/10/30 07:15:49;;;;;;;33.08;15.93;;;12.30;99.90;;;;;;4855047;29;20040;-87
2022/10/30 07:18:14;;;;;;;31.98;15.02;;;12.30;99.90;;;;;;4876846;29;20494;-87
2022/10/30 07:20:40;;;;;;;29.30;15.30;;;12.50;99.90;;;;;;4849974;29;20050;-88
2022/10/30 07:23:06;;;;;;;31.90;15.18;;;12.50;99.90;;;;;;4849110;29;20498;-87
2022/10/30 07:25:31;;;;;;;33.13;16.17;;;12.40;99.90;;;;;;4873709;29;20049;-87
2022/10/30 07:27:57;;;;;;;31.58;14.50;;;12.50;99.90;;;;;;4850451;29;20059;-88
2022/10/30 07:30:25;;;;;;;31.50;15.77;;;12.50;99.90;;;;;;4851498;29;20045;-87
2022/10/30 07:33:03;;;;;;;40.53;15.70;;;12.50;99.90;;;;;;4848986;29;20101;-88
2022/10/30 07:35:30;;;;;;;35.03;15.30;;;12.70;99.90;;;;;;4870410;29;20150;-87
2022/10/30 07:38:02;;;;;;;31.23;14.90;;;12.60;99.90;;;;;;4849785;29;20215;-88
2022/10/30 07:40:40;;;;;;;41.40;15.57;;;12.60;99.90;;;;;;4851980;29;20076;-88
2022/10/30 07:43:06;;;;;;;35.55;16.35;;;12.80;99.90;;;;;;4851382;29;20081;-89
2022/10/30 07:45:32;;;;;;;33.03;16.58;;;12.70;99.90;;;;;;4850148;29;20091;-88
2022/10/30 07:47:58;;;;;;;37.38;18.60;;;12.70;99.90;;;;;;4849700;29;20059;-88
2022/10/30 07:50:24;;;;;;;41.15;18.27;;;12.80;99.90;;;;;;4851965;29;20037;-88
2022/10/30 07:52:49;;;;;;;42.25;17.85;;;13.00;99.90;;;;;;4849934;29;20140;-89
2022/10/30 07:55:23;;;;;;;32.97;17.42;;;13.00;99.90;;;;;;4852616;29;20479;-87
2022/10/30 07:57:49;;;;;;;44.67;17.98;;;13.00;99.90;;;;;;4869668;29;20064;-88
2022/10/30 08:00:15;;;;;;;37.78;18.73;;;13.00;99.90;;;;;;4850127;29;20398;-87
2022/10/30 08:02:47;;;;;;;36.80;19.15;;;13.00;99.90;;;;;;4850684;29;20059;-87
2022/10/30 08:05:13;;;;;;;32.97;18.75;;;13.30;99.90;;;;;;4848591;29;20085;-88
2022/10/30 08:07:39;;;;;;;36.63;18.83;;;13.30;99.90;;;;;;4850057;29;20087;-89
2022/10/30 08:10:06;;;;;;;35.88;16.67;;;13.40;99.90;;;;;;4848795;29;20070;-88
2022/10/30 08:12:33;;;;;;;34.83;15.60;;;13.30;99.90;;;;;;4849919;29;20105;-88
2022/10/30 08:14:59;;;;;;;37.40;14.68;;;13.40;99.90;;;;;;4850614;29;20049;-88
2022/10/30 08:17:46;;;;;;;32.15;14.48;;;13.50;99.90;;;;;;4850212;29;20048;-88
2022/10/30 08:20:23;;;;;;;35.47;13.80;;;13.40;99.90;;;;;;4848152;29;20136;-89
2022/10/30 08:22:51;;;;;;;29.08;14.43;;;13.60;99.90;;;;;;4846359;29;20566;-88
2022/10/30 08:25:19;;;;;;;28.30;14.32;;;13.70;99.90;;;;;;4865617;29;20048;-88
2022/10/30 08:27:50;;;;;;;36.70;15.38;;;13.60;99.90;;;;;;4847751;29;20099;-88
2022/10/30 08:30:18;;;;;;;34.10;14.68;;;13.80;99.90;;;;;;4864585;29;20105;-87
2022/10/30 08:32:44;;;;;;;35.00;15.00;;;13.80;99.90;;;;;;4855366;29;20045;-88
2022/10/30 08:35:19;;;;;;;37.55;15.65;;;13.80;99.90;;;;;;4850344;29;20438;-89
2022/10/30 08:37:45;;;;;;;34.60;17.80;;;13.80;99.90;;;;;;4850988;29;20140;-88
2022/10/30 08:40:11;;;;;;;31.58;17.20;;;14.00;99.90;;;;;;4847466;29;20483;-88
2022/10/30 08:42:48;;;;;;;31.83;16.02;;;14.00;99.90;;;;;;4840639;29;20056;-88
2022/10/30 08:45:14;;;;;;;31.83;14.88;;;14.10;99.90;;;;;;4840684;29;20172;-88
2022/10/30 08:47:40;;;;;;;30.10;15.25;;;14.30;99.90;;;;;;4839118;29;20053;-88
2022/10/30 08:50:06;;;;;;;28.50;12.98;;;14.40;99.90;;;;;;4841483;29;20049;-89
2022/10/30 08:52:31;;;;;;;37.22;16.00;;;14.40;99.90;;;;;;4840509;29;20094;-87
2022/10/30 08:54:57;;;;;;;31.10;13.88;;;14.40;99.90;;;;;;4839953;29;20196;-87
2022/10/30 08:57:23;;;;;;;34.08;13.27;;;14.50;99.90;;;;;;4839826;29;20355;-87
2022/10/30 08:59:49;;;;;;;35.45;14.32;;;14.60;99.90;;;;;;4840125;29;20158;-87
2022/10/30 09:02:25;;;;;;;34.28;13.80;;;14.70;99.90;;;;;;4839916;29;20049;-87
2022/10/30 09:04:50;;;;;;;35.22;12.95;;;14.70;99.90;;;;;;4840491;29;20183;-87
2022/10/30 09:07:16;;;;;;;30.13;12.95;;;14.80;99.90;;;;;;4840228;29;20089;-88
2022/10/30 09:09:42;;;;;;;31.65;13.77;;;14.80;99.90;;;;;;4839833;29;20053;-88
2022/10/30 09:12:13;;;;;;;33.58;14.57;;;14.90;99.90;;;;;;4841219;29;20371;-87
2022/10/30 09:14:39;;;;;;;30.10;13.60;;;15.10;99.90;;;;;;4840653;29;20045;-88
2022/10/30 09:17:04;;;;;;;36.15;14.93;;;15.10;99.90;;;;;;4839987;29;20060;-87
2022/10/30 09:19:30;;;;;;;27.35;14.35;;;15.20;99.90;;;;;;4839110;29;20487;-87
2022/10/30 09:21:56;;;;;;;30.67;14.43;;;15.10;99.90;;;;;;4840084;29;20053;-86
2022/10/30 09:24:22;;;;;;;36.05;14.35;;;15.30;99.90;;;;;;4839458;29;20426;-87
2022/10/30 09:26:47;;;;;;;30.48;14.10;;;15.40;99.90;;;;;;4854283;29;20048;-86
2022/10/30 09:29:13;;;;;;;37.65;14.57;;;15.40;99.90;;;;;;4888481;29;20057;-86
2022/10/30 09:31:39;;;;;;;25.27;12.38;;;15.50;99.90;;;;;;4876818;29;20049;-85
2022/10/30 09:34:04;;;;;;;30.70;13.20;;;15.50;99.90;;;;;;4876771;29;20088;-86
2022/10/30 09:36:31;;;;;;;35.65;12.32;;;15.50;99.90;;;;;;4860773;29;20057;-86
2022/10/30 09:38:58;;;;;;;31.83;11.75;;;15.70;99.90;;;;;;4859841;29;20057;-87
2022/10/30 09:41:44;;;;;;;24.60;12.23;;;15.60;99.90;;;;;;4868345;29;20041;-87
2022/10/30 09:44:35;;;;;;;32.97;11.52;;;15.90;99.90;;;;;;4857952;29;20045;-87
2022/10/30 09:47:22;;;;;;;30.27;10.75;;;15.90;99.90;;;;;;4845391;29;20121;-87
2022/10/30 09:50:18;;;;;;;25.17;11.27;;;15.90;99.90;;;;;;4851901;29;20501;-87
2022/10/30 09:52:52;;;;;;;31.13;10.98;;;16.10;99.90;;;;;;4852557;29;20048;-87
2022/10/30 09:55:37;;;;;;;23.52;9.90;;;16.20;99.90;;;;;;4876467;29;20088;-86
2022/10/30 09:58:18;;;;;;;25.50;9.98;;;16.30;99.90;;;;;;4872348;29;20048;-86
2022/10/30 10:00:47;;;;;;;32.55;10.90;;;16.40;99.90;;;;;;4852602;29;20184;-86
2022/10/30 10:03:48;;;;;;;33.67;10.55;;;16.50;99.90;;;;;;4866087;29;20037;-87
2022/10/30 10:06:18;;;;;;;24.98;9.48;;;16.60;99.90;;;;;;4851478;29;20080;-87
2022/10/30 10:08:50;;;;;;;35.47;9.50;;;16.60;99.90;;;;;;4849630;29;20486;-87
2022/10/30 10:11:26;;;;;;;44.70;10.30;;;16.60;99.90;;;;;;4867435;29;20094;-87
2022/10/30 10:14:00;;;;;;;25.73;9.77;;;16.70;99.90;;;;;;4873075;29;20201;-87
2022/10/30 10:16:35;;;;;;;35.60;10.63;;;16.80;99.90;;;;;;4868032;29;20052;-87
2022/10/30 10:19:27;;;;;;;27.13;9.43;;;16.80;99.90;;;;;;4851431;29;20047;-86
2022/10/30 10:21:56;;;;;;;21.38;9.73;;;17.00;99.90;;;;;;4872023;29;20141;-87
2022/10/30 10:24:26;;;;;;;30.55;9.52;;;17.10;99.90;;;;;;4848470;29;20053;-87
2022/10/30 10:27:07;;;;;;;29.27;9.50;;;17.10;99.90;;;;;;4850260;29;20049;-88
2022/10/30 10:29:52;;;;;;;25.98;8.77;;;17.20;99.90;;;;;;4875538;29;20509;-86
2022/10/30 10:32:30;;;;;;;23.02;8.88;;;17.30;99.90;;;;;;4861882;29;20101;-86
2022/10/30 10:35:15;;;;;;;29.02;10.27;;;17.40;99.90;;;;;;4861986;29;20057;-88
2022/10/30 10:37:47;;;;;;;24.77;9.20;;;17.40;99.90;;;;;;4877383;29;20125;-87
2022/10/30 10:40:31;;;;;;;32.42;8.50;;;17.50;99.90;;;;;;4861201;29;20192;-87
2022/10/30 10:43:10;;;;;;;24.85;8.90;;;17.50;99.90;;;;;;4861700;29;20577;-87
2022/10/30 10:46:05;;;;;;;19.73;8.60;;;17.60;99.90;;;;;;4862015;29;20045;-87
2022/10/30 10:48:45;;;;;;;25.48;9.13;;;17.60;99.90;;;;;;4892162;29;20084;-86
2022/10/30 10:51:21;;;;;;;29.13;9.15;;;17.60;99.90;;;;;;4859033;29;20065;-86
2022/10/30 10:53:54;;;;;;;28.10;9.07;;;17.60;99.90;;;;;;4872155;29;20088;-87
2022/10/30 10:56:33;;;;;;;;;;;17.70;99.90;;;;;;4867540;29;20185;-87
2022/10/30 10:59:04;;;;;;;33.42;7.53;;;17.70;99.90;;;;;;4859097;29;19955;-86
2022/10/30 11:01:57;;;;;;;26.45;7.28;;;17.80;99.90;;;;;;4850928;29;20491;-86
2022/10/30 11:04:31;;;;;;;23.50;6.72;;;17.80;99.90;;;;;;4856154;29;20464;-86
2022/10/30 11:07:14;;;;;;;18.30;6.68;;;17.80;99.90;;;;;;4851836;29;20044;-85
2022/10/30 11:09:50;;;;;;;25.63;7.88;;;17.70;99.90;;;;;;4866461;29;20467;-87
2022/10/30 11:12:25;;;;;;;21.88;7.65;;;17.90;99.90;;;;;;4851661;29;20127;-87
2022/10/30 11:14:51;;;;;;;19.98;7.63;;;18.00;99.90;;;;;;4850302;29;20427;-87
2022/10/30 11:17:27;;;;;;;23.67;7.78;;;18.10;99.90;;;;;;4856845;29;20132;-87
2022/10/30 11:19:59;;;;;;;19.85;7.18;;;18.20;99.90;;;;;;4848857;29;20052;-87
2022/10/30 11:22:31;;;;;;;19.13;6.60;;;18.20;99.90;;;;;;4885480;29;20048;-87
2022/10/30 11:25:28;;;;;;;18.38;6.53;;;18.40;99.90;;;;;;4869188;29;20048;-88
2022/10/30 11:28:00;;;;;;;24.98;7.85;;;18.40;99.90;;;;;;4875170;29;20136;-88
2022/10/30 11:30:29;;;;;;;17.27;6.60;;;18.50;99.90;;;;;;4852578;29;20048;-88
2022/10/30 11:32:56;;;;;;;20.58;6.13;;;18.60;99.90;;;;;;4853341;29;20052;-87
2022/10/30 11:35:25;;;;;;;21.55;7.25;;;18.60;99.90;;;;;;4852230;29;20041;-88
2022/10/30 11:38:12;;;;;;;18.20;5.30;;;18.70;99.90;;;;;;4851121;29;20112;-87
2022/10/30 11:41:15;;;;;;;;;;;;;;;;;;;;;
2022/10/30 11:45:03;;;;;;;18.83;5.65;;;18.70;99.90;;;;;;4887256;29;20047;-93
2022/10/30 12:03:51;;;;;;;;;;;;;;;;;;;;;
2022/10/30 12:06:39;;;;;;;22.40;6.10;;;18.50;99.90;;;;;;4787662;29;20085;-94
2022/10/30 12:09:44;;;;;;;18.13;6.03;;;18.60;99.90;;;;;;4788114;29;20264;-94
2022/10/30 12:17:36;;;;;;;;;;;;;;;;;;;;;
2022/10/30 12:41:04;;;;;;;;;;;;;;;;;;;;;
2022/10/30 12:59:05;;;;;;;;;;;;;;;;;;;;;
2022/10/30 13:02:09;;;;;;;23.20;6.07;;;18.80;99.90;;;;;;4745972;30;20068;-92
2022/10/30 13:12:15;;;;;;;17.90;6.45;;;18.80;99.90;;;;;;4783760;29;20138;-90
2022/10/30 13:14:54;;;;;;;13.02;5.53;;;18.80;99.90;;;;;;4782591;30;20146;-86
2022/10/30 13:17:20;;;;;;;30.02;6.53;;;18.90;99.90;;;;;;4766897;30;20050;-87
2022/10/30 13:19:47;;;;;;;27.08;6.43;;;19.00;99.90;;;;;;4825191;29;20134;-86
2022/10/30 13:22:29;;;;;;;32.47;6.78;;;19.00;99.90;;;;;;4854213;29;20569;-87
2022/10/30 13:25:17;;;;;;;50.85;8.90;;;19.00;99.90;;;;;;4860676;29;20386;-86
2022/10/30 13:27:51;;;;;;;17.77;5.85;;;19.00;99.90;;;;;;4858501;29;20076;-87
2022/10/30 13:30:20;;;;;;;19.65;6.20;;;19.00;99.90;;;;;;4843101;29;20490;-86
2022/10/30 13:33:11;;;;;;;16.92;5.78;;;19.00;99.90;;;;;;4842902;29;20045;-86
2022/10/30 13:35:44;;;;;;;19.92;6.60;;;19.00;99.90;;;;;;4842734;29;20144;-87
2022/10/30 13:38:28;;;;;;;26.92;6.13;;;18.90;99.90;;;;;;4843787;29;20515;-86
2022/10/30 13:41:24;;;;;;;16.92;6.05;;;19.00;99.90;;;;;;4858948;29;20136;-86
2022/10/30 13:44:06;;;;;;;20.70;6.20;;;18.90;99.90;;;;;;4842861;29;20045;-87
2022/10/30 13:46:51;;;;;;;16.75;5.55;;;19.00;99.90;;;;;;4843494;29;20064;-87
2022/10/30 13:49:33;;;;;;;19.08;6.30;;;19.00;99.90;;;;;;4842888;29;20064;-86
2022/10/30 13:52:08;;;;;;;23.13;7.20;;;19.00;99.90;;;;;;4848928;29;20063;-87
2022/10/30 13:54:41;;;;;;;21.13;7.30;;;19.00;99.90;;;;;;4859608;29;20559;-87
2022/10/30 13:57:19;;;;;;;19.88;7.22;;;19.00;99.90;;;;;;4853214;29;20070;-86
2022/10/30 14:00:06;;;;;;;19.35;7.40;;;19.00;99.90;;;;;;4876818;29;20516;-86